sensor_id;sensor_type;location;lat;lon;timestamp;pressure;altitude;pressure_sealevel;temperature;humidity
44349;BME280;30068;50.986;4.564;2023-07-16T00:02:19;100941.13;;;27.55;49.92
44349;BME280;30068;50.986;4.564;2023-07-16T00:04:44;100939.44;;;27.54;50.01
44349;BME280;30068;50.986;4.564;2023-07-16T00:07:09;100937.53;;;27.55;50.17
44349;BME280;30068;50.986;4.564;2023-07-16T00:09:35;100949.56;;;27.54;50.05
44349;BME280;30068;50.986;4.564;2023-07-16T00:12:00;100955.28;;;27.52;50.05
44349;BME280;30068;50.986;4.564;2023-07-16T00:14:25;100941.56;;;27.52;50.20
44349;BME280;30068;50.986;4.564;2023-07-16T00:16:51;100951.91;;;27.50;49.80
44349;BME280;30068;50.986;4.564;2023-07-16T00:19:16;100955.47;;;27.50;50.38
44349;BME280;30068;50.986;4.564;2023-07-16T00:21:41;100954.66;;;27.50;50.04
44349;BME280;30068;50.986;4.564;2023-07-16T00:24:06;100959.31;;;27.49;50.24
44349;BME280;30068;50.986;4.564;2023-07-16T00:26:32;100948.34;;;27.49;50.12
44349;BME280;30068;50.986;4.564;2023-07-16T00:28:57;100956.81;;;27.48;50.04
44349;BME280;30068;50.986;4.564;2023-07-16T00:31:22;100954.06;;;27.48;49.94
44349;BME280;30068;50.986;4.564;2023-07-16T00:33:47;100960.59;;;27.47;49.98
44349;BME280;30068;50.986;4.564;2023-07-16T00:36:12;100957.88;;;27.47;49.91
44349;BME280;30068;50.986;4.564;2023-07-16T00:38:38;100962.50;;;27.46;49.95
44349;BME280;30068;50.986;4.564;2023-07-16T00:41:05;100954.53;;;27.45;50.19
44349;BME280;30068;50.986;4.564;2023-07-16T00:43:30;100957.47;;;27.43;50.05
44349;BME280;30068;50.986;4.564;2023-07-16T00:45:55;100952.84;;;27.44;50.05
44349;BME280;30068;50.986;4.564;2023-07-16T00:48:20;100959.41;;;27.43;50.09
44349;BME280;30068;50.986;4.564;2023-07-16T00:50:45;100959.41;;;27.43;49.95
44349;BME280;30068;50.986;4.564;2023-07-16T00:53:11;100956.69;;;27.43;49.95
44349;BME280;30068;50.986;4.564;2023-07-16T00:55:37;100958.59;;;27.42;50.03
44349;BME280;30068;50.986;4.564;2023-07-16T00:58:04;100959.66;;;27.41;50.06
44349;BME280;30068;50.986;4.564;2023-07-16T01:00:35;100959.88;;;27.40;50.05
44349;BME280;30068;50.986;4.564;2023-07-16T01:03:01;100972.75;;;27.39;50.24
44349;BME280;30068;50.986;4.564;2023-07-16T01:05:29;100964.75;;;27.38;50.36
44349;BME280;30068;50.986;4.564;2023-07-16T01:07:58;100968.31;;;27.38;50.13
44349;BME280;30068;50.986;4.564;2023-07-16T01:10:24;100963.06;;;27.37;50.29
44349;BME280;30068;50.986;4.564;2023-07-16T01:12:51;100971.28;;;27.37;50.19
44349;BME280;30068;50.986;4.564;2023-07-16T01:15:16;100966.91;;;27.36;50.21
44349;BME280;30068;50.986;4.564;2023-07-16T01:17:42;100966.06;;;27.35;50.19
44349;BME280;30068;50.986;4.564;2023-07-16T01:20:07;100966.28;;;27.34;50.20
44349;BME280;30068;50.986;4.564;2023-07-16T01:22:58;100976.19;;;27.35;49.96
44349;BME280;30068;50.986;4.564;2023-07-16T01:30:29;100973.91;;;27.32;50.12
44349;BME280;30068;50.986;4.564;2023-07-16T01:32:55;100972.22;;;27.31;50.23
44349;BME280;30068;50.986;4.564;2023-07-16T01:35:21;100970.31;;;27.31;49.97
44349;BME280;30068;50.986;4.564;2023-07-16T01:37:46;100967.81;;;27.30;50.32
44349;BME280;30068;50.986;4.564;2023-07-16T01:40:12;100971.38;;;27.30;50.23
44349;BME280;30068;50.986;4.564;2023-07-16T01:42:38;100971.66;;;27.29;50.16
44349;BME280;30068;50.986;4.564;2023-07-16T01:45:03;100989.16;;;27.28;49.95
44349;BME280;30068;50.986;4.564;2023-07-16T01:49:53;100987.47;;;27.27;50.04
44349;BME280;30068;50.986;4.564;2023-07-16T01:52:19;100994.84;;;27.26;49.84
44349;BME280;30068;50.986;4.564;2023-07-16T01:54:44;100992.13;;;27.26;49.87
44349;BME280;30068;50.986;4.564;2023-07-16T01:57:09;100995.91;;;27.25;50.02
44349;BME280;30068;50.986;4.564;2023-07-16T01:59:34;100998.88;;;27.24;49.97
44349;BME280;30068;50.986;4.564;2023-07-16T02:01:59;100997.25;;;27.23;49.96
44349;BME280;30068;50.986;4.564;2023-07-16T02:04:25;101006.53;;;27.22;49.94
44349;BME280;30068;50.986;4.564;2023-07-16T02:06:50;101002.94;;;27.21;49.81
44349;BME280;30068;50.986;4.564;2023-07-16T02:09:15;101003.16;;;27.20;50.05
44349;BME280;30068;50.986;4.564;2023-07-16T02:11:40;101005.91;;;27.20;49.78
44349;BME280;30068;50.986;4.564;2023-07-16T02:14:06;101005.91;;;27.20;49.65
44349;BME280;30068;50.986;4.564;2023-07-16T02:16:31;101006.97;;;27.19;49.65
44349;BME280;30068;50.986;4.564;2023-07-16T02:18:56;101024.47;;;27.18;49.73
44349;BME280;30068;50.986;4.564;2023-07-16T02:21:21;101021.72;;;27.18;49.50
44349;BME280;30068;50.986;4.564;2023-07-16T02:23:46;101018.41;;;27.16;49.51
44349;BME280;30068;50.986;4.564;2023-07-16T02:26:12;101020.06;;;27.17;49.52
44349;BME280;30068;50.986;4.564;2023-07-16T02:28:37;101021.38;;;27.14;49.59
44349;BME280;30068;50.986;4.564;2023-07-16T02:31:02;101020.31;;;27.15;49.57
44349;BME280;30068;50.986;4.564;2023-07-16T02:33:28;101020.53;;;27.13;49.64
44349;BME280;30068;50.986;4.564;2023-07-16T02:35:53;101020.53;;;27.13;49.40
44349;BME280;30068;50.986;4.564;2023-07-16T02:38:18;101018.88;;;27.12;49.58
44349;BME280;30068;50.986;4.564;2023-07-16T02:40:44;101024.34;;;27.12;49.55
44349;BME280;30068;50.986;4.564;2023-07-16T02:43:09;101028.13;;;27.11;49.69
44349;BME280;30068;50.986;4.564;2023-07-16T02:45:35;101031.94;;;27.10;49.61
44349;BME280;30068;50.986;4.564;2023-07-16T02:48:00;101033.00;;;27.09;49.48
44349;BME280;30068;50.986;4.564;2023-07-16T02:50:25;101035.75;;;27.09;49.38
44349;BME280;30068;50.986;4.564;2023-07-16T02:52:51;101036.84;;;27.08;49.27
44349;BME280;30068;50.986;4.564;2023-07-16T02:55:16;101037.91;;;27.07;49.44
44349;BME280;30068;50.986;4.564;2023-07-16T02:57:41;101046.13;;;27.07;49.50
44349;BME280;30068;50.986;4.564;2023-07-16T03:00:07;101045.28;;;27.07;49.50
44349;BME280;30068;50.986;4.564;2023-07-16T03:02:32;101047.41;;;27.05;49.17
44349;BME280;30068;50.986;4.564;2023-07-16T03:04:57;101042.16;;;27.03;49.40
44349;BME280;30068;50.986;4.564;2023-07-16T03:07:22;101039.41;;;27.03;49.14
44349;BME280;30068;50.986;4.564;2023-07-16T03:09:48;101047.63;;;27.03;48.85
44349;BME280;30068;50.986;4.564;2023-07-16T03:12:14;101043.22;;;27.02;49.00
44349;BME280;30068;50.986;4.564;2023-07-16T03:14:39;101049.78;;;27.01;48.97
44349;BME280;30068;50.986;4.564;2023-07-16T03:17:04;101049.78;;;27.01;48.82
44349;BME280;30068;50.986;4.564;2023-07-16T03:19:31;101048.09;;;27.00;48.94
44349;BME280;30068;50.986;4.564;2023-07-16T03:21:56;101041.78;;;27.00;48.91
44349;BME280;30068;50.986;4.564;2023-07-16T03:24:22;101048.53;;;26.97;48.93
44349;BME280;30068;50.986;4.564;2023-07-16T03:26:47;101054.63;;;26.99;49.06
44349;BME280;30068;50.986;4.564;2023-07-16T03:29:12;101054.88;;;26.98;48.85
44349;BME280;30068;50.986;4.564;2023-07-16T03:31:37;101054.72;;;26.93;48.95
44349;BME280;30068;50.986;4.564;2023-07-16T03:34:02;101057.81;;;26.96;48.91
44349;BME280;30068;50.986;4.564;2023-07-16T03:36:28;101063.31;;;26.96;48.91
44349;BME280;30068;50.986;4.564;2023-07-16T03:38:53;101063.56;;;26.95;48.74
44349;BME280;30068;50.986;4.564;2023-07-16T03:41:18;101059.97;;;26.94;48.93
44349;BME280;30068;50.986;4.564;2023-07-16T03:43:43;101064.63;;;26.94;48.87
44349;BME280;30068;50.986;4.564;2023-07-16T03:46:08;101073.88;;;26.93;49.00
44349;BME280;30068;50.986;4.564;2023-07-16T03:48:34;101076.84;;;26.91;48.67
44349;BME280;30068;50.986;4.564;2023-07-16T03:50:59;101081.28;;;26.92;48.78
44349;BME280;30068;50.986;4.564;2023-07-16T03:53:25;101080.66;;;26.90;48.98
44349;BME280;30068;50.986;4.564;2023-07-16T03:55:50;101085.28;;;26.90;48.84
44349;BME280;30068;50.986;4.564;2023-07-16T03:58:15;101090.78;;;26.90;48.75
44349;BME280;30068;50.986;4.564;2023-07-16T04:00:41;101095.41;;;26.89;48.75
44349;BME280;30068;50.986;4.564;2023-07-16T04:03:06;101100.88;;;26.89;48.88
44349;BME280;30068;50.986;4.564;2023-07-16T04:05:31;101089.94;;;26.89;48.84
44349;BME280;30068;50.986;4.564;2023-07-16T04:07:56;101103.00;;;26.87;48.62
44349;BME280;30068;50.986;4.564;2023-07-16T04:10:21;101098.38;;;26.88;48.81
44349;BME280;30068;50.986;4.564;2023-07-16T04:12:47;101099.41;;;26.87;48.77
44349;BME280;30068;50.986;4.564;2023-07-16T04:15:12;101102.38;;;26.85;48.85
44349;BME280;30068;50.986;4.564;2023-07-16T04:17:37;101107.03;;;26.85;48.39
44349;BME280;30068;50.986;4.564;2023-07-16T04:20:02;101104.28;;;26.85;48.67
44349;BME280;30068;50.986;4.564;2023-07-16T04:22:28;101117.13;;;26.84;48.79
44349;BME280;30068;50.986;4.564;2023-07-16T04:24:53;101109.75;;;26.85;48.76
44349;BME280;30068;50.986;4.564;2023-07-16T04:27:19;101114.41;;;26.84;48.75
44349;BME280;30068;50.986;4.564;2023-07-16T04:29:44;101112.72;;;26.83;48.54
44349;BME280;30068;50.986;4.564;2023-07-16T04:32:09;101108.28;;;26.82;48.42
44349;BME280;30068;50.986;4.564;2023-07-16T04:34:34;101102.81;;;26.82;48.51
44349;BME280;30068;50.986;4.564;2023-07-16T04:37:00;101114.88;;;26.81;48.87
44349;BME280;30068;50.986;4.564;2023-07-16T04:39:25;101115.72;;;26.82;48.54
44349;BME280;30068;50.986;4.564;2023-07-16T04:41:50;101119.50;;;26.81;48.45
44349;BME280;30068;50.986;4.564;2023-07-16T04:44:15;101115.94;;;26.80;48.49
44349;BME280;30068;50.986;4.564;2023-07-16T04:46:40;101116.97;;;26.79;48.78
44349;BME280;30068;50.986;4.564;2023-07-16T04:49:06;101125.19;;;26.79;48.75
44349;BME280;30068;50.986;4.564;2023-07-16T04:51:31;101125.63;;;26.76;48.42
44349;BME280;30068;50.986;4.564;2023-07-16T04:53:56;101131.72;;;26.78;48.65
44349;BME280;30068;50.986;4.564;2023-07-16T04:56:22;101133.63;;;26.78;48.34
44349;BME280;30068;50.986;4.564;2023-07-16T04:58:47;101139.31;;;26.76;48.76
44349;BME280;30068;50.986;4.564;2023-07-16T05:01:12;101139.56;;;26.74;48.63
44349;BME280;30068;50.986;4.564;2023-07-16T05:03:37;101137.66;;;26.75;48.38
44349;BME280;30068;50.986;4.564;2023-07-16T05:06:02;101142.53;;;26.73;48.60
44349;BME280;30068;50.986;4.564;2023-07-16T05:08:28;101139.78;;;26.73;48.53
44349;BME280;30068;50.986;4.564;2023-07-16T05:10:54;101139.16;;;26.71;48.25
44349;BME280;30068;50.986;4.564;2023-07-16T05:13:19;101143.19;;;26.68;48.72
44349;BME280;30068;50.986;4.564;2023-07-16T05:15:44;101144.50;;;26.66;48.59
44349;BME280;30068;50.986;4.564;2023-07-16T05:18:10;101138.84;;;26.61;48.77
44349;BME280;30068;50.986;4.564;2023-07-16T05:20:35;101141.75;;;26.66;48.53
44349;BME280;30068;50.986;4.564;2023-07-16T05:23:00;101151.66;;;26.67;48.71
44349;BME280;30068;50.986;4.564;2023-07-16T05:25:25;101147.00;;;26.67;48.68
44349;BME280;30068;50.986;4.564;2023-07-16T05:27:50;101148.44;;;26.70;48.37
44349;BME280;30068;50.986;4.564;2023-07-16T05:30:16;101152.03;;;26.70;48.24
44349;BME280;30068;50.986;4.564;2023-07-16T05:32:41;101162.97;;;26.70;48.31
44349;BME280;30068;50.986;4.564;2023-07-16T05:35:07;101160.03;;;26.72;48.54
44349;BME280;30068;50.986;4.564;2023-07-16T05:37:32;101156.22;;;26.73;48.33
44349;BME280;30068;50.986;4.564;2023-07-16T05:39:57;101157.91;;;26.74;48.44
44349;BME280;30068;50.986;4.564;2023-07-16T05:42:22;101164.22;;;26.74;48.26
44349;BME280;30068;50.986;4.564;2023-07-16T05:44:48;101167.56;;;26.77;48.28
44349;BME280;30068;50.986;4.564;2023-07-16T05:47:13;101168.38;;;26.77;48.08
44349;BME280;30068;50.986;4.564;2023-07-16T05:49:38;101182.09;;;26.77;48.03
44349;BME280;30068;50.986;4.564;2023-07-16T05:52:03;101193.66;;;26.79;48.33
44349;BME280;30068;50.986;4.564;2023-07-16T05:54:29;101191.53;;;26.81;48.16
44349;BME280;30068;50.986;4.564;2023-07-16T05:56:54;101184.16;;;26.82;48.08
44349;BME280;30068;50.986;4.564;2023-07-16T05:59:19;101194.03;;;26.83;48.13
44349;BME280;30068;50.986;4.564;2023-07-16T06:01:44;101195.72;;;26.84;48.13
44349;BME280;30068;50.986;4.564;2023-07-16T06:04:10;101194.88;;;26.83;47.78
44349;BME280;30068;50.986;4.564;2023-07-16T06:06:35;101194.88;;;26.83;48.18
44349;BME280;30068;50.986;4.564;2023-07-16T06:09:00;101197.41;;;26.85;48.19
44349;BME280;30068;50.986;4.564;2023-07-16T06:11:26;101203.72;;;26.85;48.10
44349;BME280;30068;50.986;4.564;2023-07-16T06:13:54;101198.66;;;26.82;47.70
44349;BME280;30068;50.986;4.564;2023-07-16T06:16:22;101213.81;;;26.85;48.05
44349;BME280;30068;50.986;4.564;2023-07-16T06:18:47;101200.97;;;26.85;47.64
44349;BME280;30068;50.986;4.564;2023-07-16T06:21:12;101208.34;;;26.85;47.80
44349;BME280;30068;50.986;4.564;2023-07-16T06:23:38;101216.56;;;26.85;47.86
44349;BME280;30068;50.986;4.564;2023-07-16T06:26:03;101209.19;;;26.85;47.62
44349;BME280;30068;50.986;4.564;2023-07-16T06:28:28;101203.94;;;26.84;47.50
44349;BME280;30068;50.986;4.564;2023-07-16T06:30:53;101210.88;;;26.86;47.60
44349;BME280;30068;50.986;4.564;2023-07-16T06:33:19;101210.88;;;26.86;47.58
44349;BME280;30068;50.986;4.564;2023-07-16T06:35:45;101199.06;;;26.86;47.47
44349;BME280;30068;50.986;4.564;2023-07-16T06:38:11;101213.00;;;26.84;47.13
44349;BME280;30068;50.986;4.564;2023-07-16T06:40:36;101214.66;;;26.85;47.43
44349;BME280;30068;50.986;4.564;2023-07-16T06:43:01;101209.19;;;26.85;47.08
44349;BME280;30068;50.986;4.564;2023-07-16T06:45:26;101207.28;;;26.86;47.21
44349;BME280;30068;50.986;4.564;2023-07-16T06:47:52;101212.78;;;26.86;47.22
44349;BME280;30068;50.986;4.564;2023-07-16T06:50:17;101210.88;;;26.86;47.40
44349;BME280;30068;50.986;4.564;2023-07-16T06:52:42;101205.41;;;26.86;47.40
44349;BME280;30068;50.986;4.564;2023-07-16T06:55:07;101211.94;;;26.85;47.19
44349;BME280;30068;50.986;4.564;2023-07-16T06:57:33;101224.56;;;26.86;47.16
44349;BME280;30068;50.986;4.564;2023-07-16T06:59:58;101223.72;;;26.86;47.10
44349;BME280;30068;50.986;4.564;2023-07-16T07:02:23;101224.56;;;26.86;47.48
44349;BME280;30068;50.986;4.564;2023-07-16T07:04:48;101221.81;;;26.86;46.99
44349;BME280;30068;50.986;4.564;2023-07-16T07:07:14;101224.34;;;26.88;47.40
44349;BME280;30068;50.986;4.564;2023-07-16T07:09:39;101225.19;;;26.88;47.26
44349;BME280;30068;50.986;4.564;2023-07-16T07:12:04;101235.53;;;26.86;47.27
44349;BME280;30068;50.986;4.564;2023-07-16T07:14:29;101229.00;;;26.87;47.12
44349;BME280;30068;50.986;4.564;2023-07-16T07:16:55;101227.94;;;26.88;47.15
44349;BME280;30068;50.986;4.564;2023-07-16T07:19:20;101238.88;;;26.88;47.17
44349;BME280;30068;50.986;4.564;2023-07-16T07:21:45;101229.00;;;26.87;47.08
44349;BME280;30068;50.986;4.564;2023-07-16T07:24:10;101235.31;;;26.88;47.12
44349;BME280;30068;50.986;4.564;2023-07-16T07:26:36;101229.00;;;26.87;47.07
44349;BME280;30068;50.986;4.564;2023-07-16T07:29:01;101230.66;;;26.88;46.98
44349;BME280;30068;50.986;4.564;2023-07-16T07:31:26;101235.31;;;26.88;47.33
44349;BME280;30068;50.986;4.564;2023-07-16T07:33:51;101238.88;;;26.88;47.16
44349;BME280;30068;50.986;4.564;2023-07-16T07:36:18;101232.34;;;26.89;47.15
44349;BME280;30068;50.986;4.564;2023-07-16T07:38:43;101259.75;;;26.89;46.68
44349;BME280;30068;50.986;4.564;2023-07-16T07:41:09;101244.16;;;26.90;47.17
44349;BME280;30068;50.986;4.564;2023-07-16T07:43:34;101244.16;;;26.90;47.16
44349;BME280;30068;50.986;4.564;2023-07-16T07:45:59;101255.94;;;26.90;47.00
44349;BME280;30068;50.986;4.564;2023-07-16T07:48:24;101252.38;;;26.90;47.11
44349;BME280;30068;50.986;4.564;2023-07-16T07:50:49;101249.63;;;26.90;47.03
44349;BME280;30068;50.986;4.564;2023-07-16T07:53:15;101252.38;;;26.90;47.25
44349;BME280;30068;50.986;4.564;2023-07-16T07:55:43;101258.69;;;26.90;46.91
44349;BME280;30068;50.986;4.564;2023-07-16T07:58:08;101257.63;;;26.91;46.97
44349;BME280;30068;50.986;4.564;2023-07-16T08:00:34;101254.88;;;26.91;47.13
44349;BME280;30068;50.986;4.564;2023-07-16T08:02:59;101261.84;;;26.94;47.00
44349;BME280;30068;50.986;4.564;2023-07-16T08:05:24;101262.03;;;26.92;47.11
44349;BME280;30068;50.986;4.564;2023-07-16T08:07:50;101255.94;;;26.90;47.09
44349;BME280;30068;50.986;4.564;2023-07-16T08:10:15;101266.69;;;26.92;47.05
44349;BME280;30068;50.986;4.564;2023-07-16T08:12:40;101266.91;;;26.90;47.15
44349;BME280;30068;50.986;4.564;2023-07-16T08:15:05;101264.16;;;26.90;46.85
44349;BME280;30068;50.986;4.564;2023-07-16T08:17:32;101274.06;;;26.91;47.32
44349;BME280;30068;50.986;4.564;2023-07-16T08:19:57;101264.78;;;26.92;47.01
44349;BME280;30068;50.986;4.564;2023-07-16T08:22:22;101272.56;;;26.95;47.01
44349;BME280;30068;50.986;4.564;2023-07-16T08:24:50;101272.56;;;26.95;47.02
44349;BME280;30068;50.986;4.564;2023-07-16T08:27:15;101269.84;;;26.95;47.20
44349;BME280;30068;50.986;4.564;2023-07-16T08:29:41;101264.34;;;26.95;47.12
44349;BME280;30068;50.986;4.564;2023-07-16T08:32:06;101261.84;;;26.94;47.06
44349;BME280;30068;50.986;4.564;2023-07-16T08:34:32;101266.00;;;26.96;47.03
44349;BME280;30068;50.986;4.564;2023-07-16T08:36:57;101275.31;;;26.95;46.98
44349;BME280;30068;50.986;4.564;2023-07-16T08:39:22;101278.06;;;26.95;47.17
44349;BME280;30068;50.986;4.564;2023-07-16T08:41:48;101283.53;;;26.95;46.85
44349;BME280;30068;50.986;4.564;2023-07-16T08:44:13;101280.78;;;26.95;47.10
44349;BME280;30068;50.986;4.564;2023-07-16T08:46:39;101282.44;;;26.96;47.18
44349;BME280;30068;50.986;4.564;2023-07-16T08:49:05;101287.91;;;26.96;47.03
44349;BME280;30068;50.986;4.564;2023-07-16T08:51:31;101278.06;;;26.95;46.76
44349;BME280;30068;50.986;4.564;2023-07-16T08:53:56;101292.56;;;26.96;47.08
44349;BME280;30068;50.986;4.564;2023-07-16T08:56:21;101290.66;;;26.96;46.84
44349;BME280;30068;50.986;4.564;2023-07-16T08:58:47;101291.75;;;26.95;46.82
44349;BME280;30068;50.986;4.564;2023-07-16T09:01:12;101291.50;;;26.97;46.95
44349;BME280;30068;50.986;4.564;2023-07-16T09:03:38;101297.22;;;26.95;47.12
44349;BME280;30068;50.986;4.564;2023-07-16T09:06:04;101288.16;;;26.95;47.17
44349;BME280;30068;50.986;4.564;2023-07-16T09:08:29;101289.22;;;26.94;46.90
44349;BME280;30068;50.986;4.564;2023-07-16T09:10:54;101301.03;;;26.94;47.10
44349;BME280;30068;50.986;4.564;2023-07-16T09:13:20;101297.66;;;26.92;46.91
44349;BME280;30068;50.986;4.564;2023-07-16T09:15:50;101301.66;;;26.90;46.88
44349;BME280;30068;50.986;4.564;2023-07-16T09:18:19;101302.50;;;26.90;46.73
44349;BME280;30068;50.986;4.564;2023-07-16T09:20:44;101298.72;;;26.91;46.33
44349;BME280;30068;50.986;4.564;2023-07-16T09:23:10;101297.66;;;26.92;46.70
44349;BME280;30068;50.986;4.564;2023-07-16T09:25:35;101298.72;;;26.91;46.60
44349;BME280;30068;50.986;4.564;2023-07-16T09:28:02;101302.06;;;26.93;46.66
44349;BME280;30068;50.986;4.564;2023-07-16T09:30:30;101290.06;;;26.94;46.57
44349;BME280;30068;50.986;4.564;2023-07-16T09:32:56;101295.53;;;26.94;46.54
44349;BME280;30068;50.986;4.564;2023-07-16T09:35:21;101308.41;;;26.94;46.56
44349;BME280;30068;50.986;4.564;2023-07-16T09:37:46;101300.19;;;26.94;46.69
44349;BME280;30068;50.986;4.564;2023-07-16T09:40:11;101319.13;;;26.95;46.41
44349;BME280;30068;50.986;4.564;2023-07-16T09:42:41;101323.78;;;26.95;46.40
44349;BME280;30068;50.986;4.564;2023-07-16T09:45:07;101315.78;;;26.93;46.54
44349;BME280;30068;50.986;4.564;2023-07-16T09:47:35;101317.47;;;26.94;46.55
44349;BME280;30068;50.986;4.564;2023-07-16T09:50:04;101323.78;;;26.95;46.51
44349;BME280;30068;50.986;4.564;2023-07-16T09:52:29;101329.25;;;26.95;46.53
44349;BME280;30068;50.986;4.564;2023-07-16T09:54:56;101322.09;;;26.94;46.60
44349;BME280;30068;50.986;4.564;2023-07-16T09:57:23;101329.25;;;26.95;46.73
44349;BME280;30068;50.986;4.564;2023-07-16T09:59:50;101333.25;;;26.92;46.57
44349;BME280;30068;50.986;4.564;2023-07-16T10:02:16;101332.63;;;26.90;46.55
44349;BME280;30068;50.986;4.564;2023-07-16T10:04:43;101342.75;;;26.90;46.63
44349;BME280;30068;50.986;4.564;2023-07-16T10:07:19;101342.75;;;26.90;46.44
44349;BME280;30068;50.986;4.564;2023-07-16T10:09:51;101339.16;;;26.89;46.06
44349;BME280;30068;50.986;4.564;2023-07-16T10:12:17;101340.22;;;26.88;46.42
44349;BME280;30068;50.986;4.564;2023-07-16T10:14:44;101344.03;;;26.87;46.46
44349;BME280;30068;50.986;4.564;2023-07-16T10:17:13;101352.00;;;26.89;46.38
44349;BME280;30068;50.986;4.564;2023-07-16T10:22:12;101347.81;;;26.86;46.21
44349;BME280;30068;50.986;4.564;2023-07-16T10:24:38;101362.13;;;26.88;46.28
44349;BME280;30068;50.986;4.564;2023-07-16T10:27:03;101357.72;;;26.87;46.41
44349;BME280;30068;50.986;4.564;2023-07-16T10:29:29;101361.28;;;26.88;46.47
44349;BME280;30068;50.986;4.564;2023-07-16T10:31:54;101360.47;;;26.87;46.21
44349;BME280;30068;50.986;4.564;2023-07-16T10:34:22;101374.16;;;26.87;46.35
44349;BME280;30068;50.986;4.564;2023-07-16T10:36:47;101380.69;;;26.86;46.16
44349;BME280;30068;50.986;4.564;2023-07-16T10:39:14;101386.16;;;26.86;46.06
44349;BME280;30068;50.986;4.564;2023-07-16T10:41:40;101384.47;;;26.85;46.30
44349;BME280;30068;50.986;4.564;2023-07-16T10:44:07;101389.94;;;26.85;46.27
44349;BME280;30068;50.986;4.564;2023-07-16T10:46:32;101385.31;;;26.86;46.13
44349;BME280;30068;50.986;4.564;2023-07-16T10:48:58;101387.22;;;26.85;46.17
44349;BME280;30068;50.986;4.564;2023-07-16T10:51:26;101381.75;;;26.85;46.27
44349;BME280;30068;50.986;4.564;2023-07-16T10:53:54;101388.28;;;26.84;46.39
44349;BME280;30068;50.986;4.564;2023-07-16T10:56:19;101388.06;;;26.86;46.41
44349;BME280;30068;50.986;4.564;2023-07-16T10:58:45;101381.53;;;26.87;46.35
44349;BME280;30068;50.986;4.564;2023-07-16T11:01:10;101387.84;;;26.87;46.42
44349;BME280;30068;50.986;4.564;2023-07-16T11:03:35;101393.31;;;26.87;46.24
44349;BME280;30068;50.986;4.564;2023-07-16T11:06:08;101388.69;;;26.88;46.33
44349;BME280;30068;50.986;4.564;2023-07-16T11:08:33;101387.84;;;26.87;46.05
44349;BME280;30068;50.986;4.564;2023-07-16T11:10:58;101405.34;;;26.86;46.21
44349;BME280;30068;50.986;4.564;2023-07-16T11:13:27;101405.34;;;26.86;46.49
44349;BME280;30068;50.986;4.564;2023-07-16T11:15:53;101415.66;;;26.84;46.37
44349;BME280;30068;50.986;4.564;2023-07-16T11:18:18;101415.66;;;26.84;46.50
44349;BME280;30068;50.986;4.564;2023-07-16T11:20:43;101408.28;;;26.85;46.39
44349;BME280;30068;50.986;4.564;2023-07-16T11:23:09;101409.13;;;26.85;46.18
44349;BME280;30068;50.986;4.564;2023-07-16T11:25:35;101411.66;;;26.87;46.42
44349;BME280;30068;50.986;4.564;2023-07-16T11:28:00;101406.19;;;26.87;46.09
44349;BME280;30068;50.986;4.564;2023-07-16T11:30:26;101416.91;;;26.88;46.41
44349;BME280;30068;50.986;4.564;2023-07-16T11:32:52;101404.50;;;26.86;46.56
44349;BME280;30068;50.986;4.564;2023-07-16T11:35:19;101420.09;;;26.85;46.26
44349;BME280;30068;50.986;4.564;2023-07-16T11:37:46;101424.72;;;26.85;46.62
44349;BME280;30068;50.986;4.564;2023-07-16T11:40:14;101426.63;;;26.84;46.57
44349;BME280;30068;50.986;4.564;2023-07-16T11:42:40;101413.75;;;26.85;46.46
44349;BME280;30068;50.986;4.564;2023-07-16T11:45:17;101422.81;;;26.85;46.52
44349;BME280;30068;50.986;4.564;2023-07-16T11:47:42;101417.34;;;26.85;46.56
44349;BME280;30068;50.986;4.564;2023-07-16T11:50:08;101419.25;;;26.85;46.45
44349;BME280;30068;50.986;4.564;2023-07-16T11:52:33;101425.56;;;26.85;46.43
44349;BME280;30068;50.986;4.564;2023-07-16T11:54:59;101412.91;;;26.84;46.69
44349;BME280;30068;50.986;4.564;2023-07-16T11:57:30;101418.19;;;26.86;46.42
44349;BME280;30068;50.986;4.564;2023-07-16T11:59:55;101419.88;;;26.87;46.58
44349;BME280;30068;50.986;4.564;2023-07-16T12:02:21;101422.41;;;26.88;46.37
44349;BME280;30068;50.986;4.564;2023-07-16T12:04:47;101424.09;;;26.89;46.48
44349;BME280;30068;50.986;4.564;2023-07-16T12:07:12;101422.19;;;26.90;46.49
44349;BME280;30068;50.986;4.564;2023-07-16T12:09:37;101424.09;;;26.89;46.39
44349;BME280;30068;50.986;4.564;2023-07-16T12:12:03;101419.44;;;26.90;46.56
44349;BME280;30068;50.986;4.564;2023-07-16T12:14:28;101412.25;;;26.89;46.51
44349;BME280;30068;50.986;4.564;2023-07-16T12:16:53;101402.16;;;26.89;46.44
44349;BME280;30068;50.986;4.564;2023-07-16T12:19:19;101403.84;;;26.90;46.54
44349;BME280;30068;50.986;4.564;2023-07-16T12:21:44;101412.25;;;26.89;46.24
44349;BME280;30068;50.986;4.564;2023-07-16T12:24:09;101407.88;;;26.88;46.60
44349;BME280;30068;50.986;4.564;2023-07-16T12:26:35;101402.59;;;26.86;46.69
44349;BME280;30068;50.986;4.564;2023-07-16T12:29:00;101401.53;;;26.87;46.82
44349;BME280;30068;50.986;4.564;2023-07-16T12:31:28;101411.66;;;26.87;46.87
44349;BME280;30068;50.986;4.564;2023-07-16T12:33:53;101405.75;;;26.83;46.62
44349;BME280;30068;50.986;4.564;2023-07-16T12:36:18;101409.13;;;26.85;46.90
44349;BME280;30068;50.986;4.564;2023-07-16T12:38:44;101400.91;;;26.92;46.80
44349;BME280;30068;50.986;4.564;2023-07-16T12:41:09;101404.44;;;26.99;46.98
44349;BME280;30068;50.986;4.564;2023-07-16T12:43:35;101402.09;;;27.02;46.57
44349;BME280;30068;50.986;4.564;2023-07-16T12:46:00;101402.50;;;27.06;46.65
44349;BME280;30068;50.986;4.564;2023-07-16T12:48:27;101408.38;;;27.09;46.46
44349;BME280;30068;50.986;4.564;2023-07-16T12:50:52;101404.56;;;27.10;46.52
44349;BME280;30068;50.986;4.564;2023-07-16T12:53:18;101420.59;;;27.13;46.52